createdAt,value
2022-08-08T00:02:03.508Z,99.90
2022-08-08T00:04:57.878Z,99.90
2022-08-08T00:07:49.619Z,99.90
2022-08-08T00:10:45.978Z,99.90
2022-08-08T00:14:17.100Z,99.90
2022-08-08T00:16:53.059Z,99.90
2022-08-08T00:19:51.374Z,99.90
2022-08-08T00:22:42.263Z,99.90
2022-08-08T00:25:44.643Z,99.90
2022-08-08T00:28:36.692Z,99.90
2022-08-08T00:32:20.005Z,99.90
2022-08-08T00:35:04.151Z,99.90
2022-08-08T00:38:02.202Z,99.90
2022-08-08T00:41:14.349Z,99.90
2022-08-08T00:44:08.394Z,99.90
2022-08-08T00:47:23.345Z,99.90
2022-08-08T00:50:25.207Z,99.90
2022-08-08T00:53:20.577Z,99.90
2022-08-08T00:56:31.159Z,99.90
2022-08-08T00:59:46.657Z,99.90
2022-08-08T01:03:59.768Z,99.90
2022-08-08T01:06:42.962Z,99.90
2022-08-08T01:10:06.222Z,99.90
2022-08-08T01:13:14.952Z,99.90
2022-08-08T01:16:28.054Z,99.90
2022-08-08T01:20:01.982Z,99.90
2022-08-08T01:24:02.909Z,99.90
2022-08-08T01:26:37.884Z,99.90
2022-08-08T01:29:59.117Z,99.90
2022-08-08T01:33:23.363Z,99.90
2022-08-08T01:36:32.713Z,99.90
2022-08-08T01:39:28.365Z,99.90
2022-08-08T01:42:35.735Z,99.90
2022-08-08T01:45:37.718Z,99.90
2022-08-08T01:48:39.738Z,99.90
2022-08-08T01:52:42.365Z,99.90
2022-08-08T01:55:45.473Z,99.90
2022-08-08T01:58:39.580Z,99.90
2022-08-08T02:02:00.609Z,99.90
2022-08-08T02:04:58.789Z,99.90
2022-08-08T02:07:56.254Z,99.90
2022-08-08T02:10:53.673Z,99.90
2022-08-08T02:13:54.259Z,99.90
2022-08-08T02:16:57.996Z,99.90
2022-08-08T02:20:09.500Z,99.90
2022-08-08T02:23:05.178Z,99.90
2022-08-08T02:26:01.768Z,99.90
2022-08-08T02:29:00.366Z,99.90
2022-08-08T02:32:08.609Z,99.90
2022-08-08T02:35:10.367Z,99.90
2022-08-08T02:38:25.539Z,99.90
2022-08-08T02:41:59.204Z,99.90
2022-08-08T02:45:01.398Z,99.90
2022-08-08T02:48:26.106Z,99.90
2022-08-08T02:51:47.591Z,99.90
2022-08-08T02:55:19.592Z,99.90
2022-08-08T02:58:38.813Z,99.90
2022-08-08T03:01:52.460Z,99.90
2022-08-08T03:05:04.905Z,99.90
2022-08-08T03:08:20.989Z,99.90
2022-08-08T03:11:25.614Z,99.90
2022-08-08T03:15:58.955Z,99.90
2022-08-08T03:17:59.940Z,99.90
2022-08-08T03:20:53.577Z,99.90
2022-08-08T03:23:59.902Z,99.90
2022-08-08T03:26:53.050Z,99.90
2022-08-08T03:29:55.631Z,99.90
2022-08-08T03:33:07.671Z,99.90
2022-08-08T03:36:19.758Z,99.90
2022-08-08T03:39:15.587Z,99.90
2022-08-08T03:42:28.559Z,99.90
2022-08-08T03:46:03.230Z,99.90
2022-08-08T03:49:10.056Z,99.90
2022-08-08T03:51:40.489Z,99.90
2022-08-08T03:54:41.590Z,99.90
2022-08-08T03:58:34.654Z,99.90
2022-08-08T04:00:56.422Z,99.90
2022-08-08T04:03:58.427Z,99.90
2022-08-08T04:06:57.078Z,99.90
2022-08-08T04:10:02.856Z,99.90
2022-08-08T04:12:55.557Z,99.90
2022-08-08T04:16:03.443Z,99.90
2022-08-08T04:18:52.379Z,99.90
2022-08-08T04:21:45.816Z,99.90
2022-08-08T04:24:34.101Z,99.90
2022-08-08T04:28:03.008Z,99.90
2022-08-08T04:30:36.436Z,99.90
2022-08-08T04:33:27.600Z,99.90
2022-08-08T04:36:15.783Z,99.90
2022-08-08T04:40:03.378Z,99.90
2022-08-08T04:42:15.684Z,99.90
2022-08-08T04:45:06.480Z,99.90
2022-08-08T04:47:54.348Z,99.90
2022-08-08T04:50:46.003Z,99.90
2022-08-08T04:54:36.194Z,99.90
2022-08-08T04:56:45.712Z,99.90
2022-08-08T04:59:33.919Z,99.90
2022-08-08T05:02:32.628Z,99.90
2022-08-08T05:05:44.180Z,99.90
2022-08-08T05:08:28.838Z,99.90
2022-08-08T05:11:23.943Z,99.90
2022-08-08T05:14:20.574Z,99.90
2022-08-08T05:17:13.511Z,99.90
2022-08-08T05:20:13.982Z,99.90
2022-08-08T05:23:03.695Z,99.90
2022-08-08T05:25:55.292Z,99.90
2022-08-08T05:28:55.885Z,99.90
2022-08-08T05:32:05.556Z,99.90
2022-08-08T05:34:53.258Z,99.90
2022-08-08T05:37:54.636Z,99.90
2022-08-08T05:40:58.304Z,99.90
2022-08-08T05:44:03.376Z,99.90
2022-08-08T05:46:52.712Z,99.90
2022-08-08T05:49:41.848Z,99.90
2022-08-08T05:52:44.112Z,99.90
2022-08-08T05:56:10.102Z,99.90
2022-08-08T05:58:53.911Z,99.90
2022-08-08T06:01:56.143Z,99.90
2022-08-08T06:04:54.628Z,99.90
2022-08-08T06:07:46.715Z,99.90
2022-08-08T06:10:39.249Z,99.90
2022-08-08T06:13:35.627Z,99.90
2022-08-08T06:16:30.298Z,99.90
2022-08-08T06:19:49.065Z,99.90
2022-08-08T06:22:37.549Z,99.90
2022-08-08T06:26:39.073Z,99.90
2022-08-08T06:28:50.279Z,99.90
2022-08-08T06:31:52.388Z,99.90
2022-08-08T06:35:12.263Z,99.90
2022-08-08T06:38:14.239Z,99.90
2022-08-08T06:41:13.470Z,99.90
2022-08-08T06:44:06.435Z,99.90
2022-08-08T06:47:00.377Z,99.90
2022-08-08T06:49:56.575Z,99.90
2022-08-08T06:52:47.905Z,99.90
2022-08-08T06:55:41.520Z,99.90
2022-08-08T06:58:33.540Z,99.90
2022-08-08T07:02:26.505Z,99.90
2022-08-08T07:04:48.032Z,99.90
2022-08-08T07:07:53.109Z,99.90
2022-08-08T07:10:49.888Z,99.90
2022-08-08T07:14:00.420Z,99.90
2022-08-08T07:16:54.290Z,99.90
2022-08-08T07:19:47.579Z,99.90
2022-08-08T07:22:39.623Z,99.90
2022-08-08T07:25:31.904Z,99.90
2022-08-08T07:28:22.574Z,99.90
2022-08-08T07:31:14.946Z,99.90
2022-08-08T07:34:09.174Z,99.90
2022-08-08T07:36:58.846Z,99.90
2022-08-08T07:39:57.740Z,99.90
2022-08-08T07:42:53.601Z,99.90
2022-08-08T07:46:04.777Z,99.90
2022-08-08T07:48:51.819Z,99.90
2022-08-08T07:51:52.887Z,99.90
2022-08-08T07:54:44.959Z,99.90
2022-08-08T07:57:48.162Z,99.90
2022-08-08T08:00:50.492Z,99.90
2022-08-08T08:03:44.039Z,99.90
2022-08-08T08:06:38.630Z,99.90
2022-08-08T08:09:33.092Z,99.90
2022-08-08T08:12:31.497Z,99.90
2022-08-08T08:15:25.871Z,99.90
2022-08-08T08:18:31.661Z,99.90
2022-08-08T08:21:35.532Z,99.90
2022-08-08T08:24:35.249Z,99.90
2022-08-08T08:27:24.570Z,99.90
2022-08-08T08:30:19.310Z,99.90
2022-08-08T08:33:11.075Z,99.90
2022-08-08T08:36:18.726Z,99.90
2022-08-08T08:39:17.505Z,99.90
2022-08-08T08:42:12.253Z,99.90
2022-08-08T08:45:02.210Z,99.90
2022-08-08T08:48:09.106Z,99.90
2022-08-08T08:51:04.971Z,99.90
2022-08-08T08:54:00.761Z,99.90
2022-08-08T08:56:57.266Z,99.90
2022-08-08T08:59:58.603Z,99.90
2022-08-08T09:02:48.485Z,99.90
2022-08-08T09:05:54.350Z,99.90
2022-08-08T09:08:51.954Z,99.90
2022-08-08T09:11:47.475Z,99.90
2022-08-08T09:14:55.402Z,99.90
2022-08-08T09:17:55.278Z,99.90
2022-08-08T09:22:05.306Z,99.90
2022-08-08T09:23:55.065Z,99.90
2022-08-08T09:26:47.341Z,99.90
2022-08-08T09:29:52.688Z,99.90
2022-08-08T09:33:01.268Z,99.90
2022-08-08T09:35:53.738Z,99.90
2022-08-08T09:38:53.794Z,99.90
2022-08-08T09:42:14.953Z,99.90
2022-08-08T09:44:58.691Z,99.90
2022-08-08T09:48:10.060Z,99.90
2022-08-08T09:51:04.659Z,99.90
2022-08-08T09:54:07.834Z,99.90
2022-08-08T09:57:03.025Z,98.80
2022-08-08T10:00:28.922Z,99.90
2022-08-08T10:03:03.934Z,99.30
2022-08-08T10:05:51.727Z,99.00
2022-08-08T10:08:44.207Z,99.90
2022-08-08T10:12:28.418Z,99.40
2022-08-08T10:14:43.359Z,99.30
2022-08-08T10:17:57.335Z,96.70
2022-08-08T10:20:51.066Z,95.30
2022-08-08T10:23:55.919Z,96.50
2022-08-08T10:26:56.726Z,96.70
2022-08-08T10:29:59.198Z,96.90
2022-08-08T10:32:51.410Z,98.60
2022-08-08T10:36:07.578Z,95.90
2022-08-08T10:38:48.459Z,94.20
2022-08-08T10:41:58.487Z,96.30
2022-08-08T10:44:46.074Z,95.80
2022-08-08T10:47:43.274Z,93.00
2022-08-08T10:50:33.426Z,96.10
2022-08-08T10:53:20.710Z,94.90
2022-08-08T10:56:35.686Z,94.30
2022-08-08T10:59:23.938Z,97.60
2022-08-08T11:02:11.790Z,98.80
2022-08-08T11:04:59.476Z,97.50
2022-08-08T11:08:30.684Z,97.10
2022-08-08T11:11:08.042Z,94.00
2022-08-08T11:14:16.242Z,91.60
2022-08-08T11:17:04.297Z,92.40
2022-08-08T11:19:53.231Z,93.20
2022-08-08T11:22:41.968Z,91.80
2022-08-08T11:25:52.304Z,93.20
2022-08-08T11:28:38.595Z,90.40
2022-08-08T11:31:46.594Z,88.30
2022-08-08T11:34:52.627Z,91.20
2022-08-08T11:38:36.202Z,89.20
2022-08-08T11:40:57.943Z,90.50
2022-08-08T11:43:45.591Z,88.80
2022-08-08T11:46:38.307Z,81.10
2022-08-08T11:49:27.765Z,84.30
2022-08-08T11:52:18.587Z,80.30
2022-08-08T11:55:16.554Z,85.80
2022-08-08T11:58:08.407Z,88.60
2022-08-08T12:01:12.271Z,85.10
2022-08-08T12:04:06.781Z,89.40
2022-08-08T12:07:03.925Z,93.10
2022-08-08T12:09:59.715Z,90.20
2022-08-08T12:12:54.544Z,89.00
2022-08-08T12:15:49.064Z,85.80
2022-08-08T12:18:46.754Z,85.50
2022-08-08T12:22:00.581Z,87.00
2022-08-08T12:24:54.082Z,83.00
2022-08-08T12:27:45.718Z,82.50
2022-08-08T12:30:36.099Z,81.60
2022-08-08T12:33:37.036Z,79.70
2022-08-08T12:36:28.516Z,77.10
2022-08-08T12:40:01.769Z,85.20
2022-08-08T12:42:47.617Z,79.10
2022-08-08T12:45:58.364Z,83.60
2022-08-08T12:49:18.993Z,83.40
2022-08-08T12:52:02.072Z,85.30
2022-08-08T12:55:02.052Z,82.10
2022-08-08T12:57:57.064Z,80.90
2022-08-08T13:00:44.552Z,86.20
2022-08-08T13:03:34.972Z,80.60
2022-08-08T13:06:26.460Z,78.80
2022-08-08T13:09:14.026Z,83.10
2022-08-08T13:12:24.704Z,82.60
2022-08-08T13:15:12.242Z,82.00
2022-08-08T13:18:11.544Z,81.10
2022-08-08T13:21:01.080Z,77.40
2022-08-08T13:23:49.894Z,77.80
2022-08-08T13:26:37.785Z,80.00
2022-08-08T13:29:27.389Z,83.20
2022-08-08T13:32:26.446Z,83.00
2022-08-08T13:35:25.128Z,84.30
2022-08-08T13:38:18.935Z,83.70
2022-08-08T13:41:16.754Z,82.40
2022-08-08T13:44:04.895Z,83.50
2022-08-08T13:46:56.244Z,79.50
2022-08-08T13:50:35.188Z,83.20
2022-08-08T13:52:52.154Z,84.50
2022-08-08T13:55:42.802Z,86.90
2022-08-08T13:58:34.617Z,84.70
2022-08-08T14:01:23.281Z,76.50
2022-08-08T14:04:24.516Z,82.40
2022-08-08T14:07:12.548Z,79.10
2022-08-08T14:10:11.709Z,82.80
2022-08-08T14:13:00.019Z,77.10
2022-08-08T14:15:50.278Z,78.80
2022-08-08T14:18:52.180Z,81.40
2022-08-08T14:21:48.921Z,77.20
2022-08-08T14:24:41.411Z,78.00
2022-08-08T14:27:33.211Z,77.90
2022-08-08T14:30:21.944Z,76.20
2022-08-08T14:33:12.904Z,74.30
2022-08-08T14:36:03.532Z,77.30
2022-08-08T14:38:58.704Z,77.70
2022-08-08T14:41:54.491Z,78.30
2022-08-08T14:44:42.360Z,76.10
2022-08-08T14:47:44.953Z,79.60
2022-08-08T14:50:41.950Z,79.70
2022-08-08T14:53:37.148Z,75.40
2022-08-08T14:56:26.454Z,70.40
2022-08-08T14:59:22.286Z,74.40
2022-08-08T15:02:25.265Z,76.00
2022-08-08T15:05:13.452Z,77.40
2022-08-08T15:08:01.344Z,74.40
2022-08-08T15:10:48.939Z,73.40
2022-08-08T15:13:40.941Z,76.60
2022-08-08T15:16:45.403Z,75.90
2022-08-08T15:19:35.105Z,80.20
2022-08-08T15:22:23.555Z,81.80
2022-08-08T15:25:17.863Z,83.10
2022-08-08T15:28:34.169Z,82.50
2022-08-08T15:31:55.731Z,85.30
2022-08-08T15:34:32.177Z,84.20
2022-08-08T15:37:20.025Z,78.10
2022-08-08T15:40:11.206Z,77.00
2022-08-08T15:43:02.639Z,76.10
2022-08-08T15:46:06.479Z,70.00
2022-08-08T15:48:55.394Z,71.30
2022-08-08T15:51:42.800Z,70.00
2022-08-08T15:54:39.081Z,71.60
2022-08-08T15:57:28.207Z,73.20
2022-08-08T16:00:27.878Z,72.90
2022-08-08T16:03:15.965Z,72.20
2022-08-08T16:06:04.735Z,69.50
2022-08-08T16:13:00.780Z,73.80
2022-08-08T16:13:04.464Z,75.30
2022-08-08T16:15:08.825Z,75.20
2022-08-08T16:18:11.469Z,70.70
2022-08-08T16:21:01.175Z,72.10
2022-08-08T16:23:50.605Z,72.40
2022-08-08T16:26:43.872Z,76.00
2022-08-08T16:29:37.371Z,73.00
2022-08-08T16:32:40.600Z,73.80
2022-08-08T16:35:28.871Z,73.10
2022-08-08T16:38:31.267Z,73.60
2022-08-08T16:41:22.467Z,70.50
2022-08-08T16:44:12.713Z,72.30
2022-08-08T16:47:40.326Z,71.30
2022-08-08T17:03:58.826Z,77.30
2022-08-08T17:06:49.298Z,80.00
2022-08-08T17:09:45.189Z,79.70
2022-08-08T17:12:33.416Z,78.40
2022-08-08T17:15:24.312Z,76.00
2022-08-08T17:18:15.909Z,75.80
2022-08-08T17:21:09.476Z,74.70
2022-08-08T17:24:00.936Z,72.30
2022-08-08T17:26:50.508Z,74.90
2022-08-08T17:29:43.698Z,74.30
2022-08-08T17:34:34.955Z,76.10
2022-08-08T17:35:55.844Z,76.10
2022-08-08T17:39:05.156Z,81.20
2022-08-08T17:42:06.684Z,82.30
2022-08-08T17:44:54.490Z,86.80
2022-08-08T17:47:41.855Z,89.30
2022-08-08T17:50:29.091Z,91.00
2022-08-08T17:53:16.876Z,91.50
2022-08-08T17:56:12.313Z,92.10
2022-08-08T17:58:59.925Z,92.80
2022-08-08T18:01:51.414Z,93.40
2022-08-08T18:04:50.831Z,94.00
2022-08-08T18:08:03.172Z,94.60
2022-08-08T18:10:46.309Z,95.10
2022-08-08T18:13:41.307Z,95.70
2022-08-08T18:16:31.235Z,96.20
2022-08-08T18:19:21.530Z,96.70
2022-08-08T18:22:50.381Z,97.20
2022-08-08T18:25:16.406Z,97.90
2022-08-08T18:28:04.210Z,98.70
2022-08-08T18:30:52.827Z,99.30
2022-08-08T18:34:25.173Z,99.90
2022-08-08T18:36:48.381Z,99.90
2022-08-08T18:39:37.042Z,99.90
2022-08-08T18:42:24.692Z,99.90
2022-08-08T18:46:00.530Z,99.90
2022-08-08T18:48:21.456Z,99.90
2022-08-08T18:51:40.558Z,99.90
2022-08-08T18:54:24.605Z,99.90
2022-08-08T18:57:15.380Z,99.90
2022-08-08T19:00:03.874Z,99.90
2022-08-08T19:02:56.593Z,99.90
2022-08-08T19:05:51.102Z,99.90
2022-08-08T19:08:39.542Z,99.90
2022-08-08T19:11:27.740Z,99.90
2022-08-08T19:14:20.413Z,99.90
2022-08-08T19:17:08.505Z,99.90
2022-08-08T19:20:02.987Z,99.90
2022-08-08T19:22:52.532Z,99.90
2022-08-08T19:26:20.146Z,99.90
2022-08-08T19:28:49.767Z,99.90
2022-08-08T19:31:37.391Z,99.90
2022-08-08T19:34:36.007Z,99.90
2022-08-08T19:37:43.376Z,99.90
2022-08-08T19:40:35.113Z,99.90
2022-08-08T19:43:28.101Z,99.90
2022-08-08T19:46:16.207Z,99.90
2022-08-08T19:49:10.243Z,99.90
2022-08-08T19:51:57.881Z,99.90
2022-08-08T19:54:46.220Z,99.90
2022-08-08T19:57:36.310Z,99.90
2022-08-08T20:00:30.849Z,99.90
2022-08-08T20:04:01.262Z,99.90
2022-08-08T20:06:26.851Z,99.90
2022-08-08T20:09:17.204Z,99.90
2022-08-08T20:12:10.063Z,99.90
2022-08-08T20:14:59.198Z,99.90
2022-08-08T20:17:48.410Z,99.90
2022-08-08T20:20:36.140Z,99.90
2022-08-08T20:23:30.267Z,99.90
2022-08-08T20:26:17.579Z,99.90
2022-08-08T20:29:11.057Z,99.90
2022-08-08T20:32:10.013Z,99.90
2022-08-08T20:35:02.397Z,99.90
2022-08-08T20:37:53.407Z,99.90
2022-08-08T20:40:42.336Z,99.90
2022-08-08T20:43:43.602Z,99.90
2022-08-08T20:46:35.534Z,99.90
2022-08-08T20:49:32.409Z,99.90
2022-08-08T20:52:28.692Z,99.90
2022-08-08T20:55:22.765Z,99.90
2022-08-08T20:58:13.975Z,99.90
2022-08-08T21:01:10.913Z,99.90
2022-08-08T21:04:07.557Z,99.90
2022-08-08T21:07:05.004Z,99.90
2022-08-08T21:10:07.930Z,99.90
2022-08-08T21:13:00.086Z,99.90
2022-08-08T21:16:06.259Z,99.90
2022-08-08T21:18:57.350Z,99.90
2022-08-08T21:21:44.940Z,99.90
2022-08-08T21:24:34.599Z,99.90
2022-08-08T21:28:06.448Z,99.90
2022-08-08T21:30:34.322Z,99.90
2022-08-08T21:33:22.657Z,99.90
2022-08-08T21:36:20.458Z,99.90
2022-08-08T21:39:08.259Z,99.90
2022-08-08T21:41:59.142Z,99.90
2022-08-08T21:44:58.532Z,99.90
2022-08-08T21:48:05.191Z,99.90
2022-08-08T21:50:54.123Z,99.90
2022-08-08T21:54:30.894Z,99.90
2022-08-08T21:56:49.914Z,99.90
2022-08-08T22:00:02.039Z,99.90
2022-08-08T22:02:47.210Z,99.90
2022-08-08T22:05:37.646Z,99.90
2022-08-08T22:08:37.411Z,99.90
2022-08-08T22:11:52.908Z,99.90
2022-08-08T22:14:37.174Z,99.90
2022-08-08T22:17:25.909Z,99.90
2022-08-08T22:20:23.475Z,99.90
2022-08-08T22:23:11.526Z,99.90
2022-08-08T22:26:27.012Z,99.90
2022-08-08T22:29:56.529Z,99.90
2022-08-08T22:32:17.965Z,99.90
2022-08-08T22:35:08.251Z,99.90
2022-08-08T22:38:00.139Z,99.90
2022-08-08T22:40:49.004Z,99.90
2022-08-08T22:43:39.352Z,99.90
2022-08-08T22:46:45.744Z,99.90
2022-08-08T22:49:33.567Z,99.90
2022-08-08T22:52:25.841Z,99.90
2022-08-08T22:55:13.490Z,99.90
2022-08-08T22:58:00.986Z,99.90
2022-08-08T23:00:54.192Z,99.90
2022-08-08T23:03:54.670Z,99.90
2022-08-08T23:06:42.836Z,99.90
2022-08-08T23:09:39.320Z,99.90
2022-08-08T23:12:41.395Z,99.90
2022-08-08T23:16:38.720Z,99.90
2022-08-08T23:18:36.735Z,99.90
2022-08-08T23:21:26.665Z,99.90
2022-08-08T23:24:22.564Z,99.90
2022-08-08T23:27:17.330Z,99.90
2022-08-08T23:30:22.118Z,99.90
2022-08-08T23:33:18.860Z,99.90
2022-08-08T23:36:09.296Z,99.90
2022-08-08T23:38:56.864Z,99.90
2022-08-08T23:41:46.892Z,99.90
2022-08-08T23:44:36.993Z,99.90
2022-08-08T23:49:00.665Z,99.90
2022-08-08T23:50:34.570Z,99.90
2022-08-08T23:54:04.763Z,99.90
2022-08-08T23:56:32.519Z,99.90
2022-08-08T23:59:21.665Z,99.90
